x

8454049 - Quonset Point, Ri (qptr1) Weather Station

8:54 - Fri 29th May 2015 All times are EDT. -4 hours from GMT.

  • Wind
    6mph, 7mph gusts
  • Sea Temp 62°f
  • Air Temp 62°f
  • Sea Pressure 1023.9mb
  • 8454049 - Quonset Point, Ri
  • 8454049 - Quonset Point, Ri

More Historic Weather Station data

Upgrade to MSW Pro to gain access to the past 30 days of data for over 8000 Wavebouys and Weather Stations around the globe.

Join Pro

Comparision Forecast

View Surf forecast
   
ven. 05/29 8:54 6 7 mph 1023.9mb 62f 62f
8:48 7 8 mph 1023.8mb 62f 62f
8:42 7 8 mph 1023.9mb 62f 62f
8:36 8
mph
1023.9mb 62f 62f
8:30 7 9 mph 1023.8mb 63f 63f
8:24 8 10 mph 1023.9mb 63f 63f
8:18 9 10 mph 1023.8mb 63f 63f
8:12 9 10 mph 1024mb 63f 63f
8:06 9
mph
1024.1mb 63f 63f
7:54 9 11 mph 1023.9mb 63f 63f
7:48 10 11 mph 1023.9mb 63f 63f
7:42 10 11 mph 1024mb 64f 63f
7:36 9 10 mph 1024.1mb 64f 63f
7:30 9 10 mph 1024mb 64f 63f
7:24 10 11 mph 1024mb 64f 63f
7:18 10 11 mph 1023.9mb 64f 63f
7:12 10 14 mph 1024mb 64f 63f
7:06 11 13 mph 1024mb 64f 63f
7:00 13 14 mph 1024mb 64f 63f
6:54 13 14 mph 1024mb 64f 63f
6:48 11 13 mph 1024mb 64f 63f
6:42 11 13 mph 1023.9mb 64f 63f
6:36 11 14 mph 1023.9mb 64f 63f
6:30 11 14 mph 1023.8mb 64f 64f
6:24 13 14 mph 1023.8mb 64f 64f
6:18 13 14 mph 1023.7mb 64f 64f
6:12 13 14 mph 1023.6mb 64f 64f
6:06 14 15 mph 1023.6mb 64f 64f
6:00 13 15 mph 1023.7mb 64f 64f
5:54 14 15 mph 1023.7mb 64f 64f
5:48 14 15 mph 1023.8mb 64f 64f
5:42 14 15 mph 1023.8mb 64f 65f
5:36 14 16 mph 1023.9mb 64f 65f
5:30 15 16 mph 1023.8mb 64f 64f
5:24 14 15 mph 1023.8mb 64f 65f
5:18 14 15 mph 1023.9mb 64f 65f
5:12 13 15 mph 1023.9mb 64f 65f
5:06 14
mph
1023.9mb 64f 65f
5:00  -  mph 1024mb 64f 65f
4:30  -  mph 1024mb - -
4:24  -  mph 1024.1mb - -
4:12  -  mph 1024.1mb - -
4:06  -  mph 1024.2mb - -
4:00  -  mph 1024.2mb - -
3:30 16 20 mph 1024.3mb 64f 66f
3:24 17 18 mph 1024.3mb 65f 66f
3:18 16 18 mph 1024.3mb 65f 66f
3:12 16 17 mph 1024.3mb 65f 66f
3:06 16 17 mph 1024.3mb 65f 66f
3:00 15 17 mph 1024.2mb 64f 66f
2:54 16 17 mph 1024.2mb 64f 66f
2:48 16 17 mph 1024.3mb 64f 66f
2:42 15 16 mph 1024.4mb 64f 66f
2:36 16 17 mph 1024.4mb 64f 66f
2:30 16 17 mph 1024.4mb 64f 67f
2:24 15 16 mph 1024.4mb 64f 67f
2:18 15 16 mph 1024.4mb 64f 67f
2:12 16 17 mph 1024.4mb 64f 67f
2:06 16
mph
1024.3mb 63f 67f
2:00 15 17 mph 1024.3mb 63f 67f
1:54 15 17 mph 1024.3mb 62f 67f
1:48 14 15 mph 1024.4mb 62f 67f
1:42 13 14 mph 1024.5mb 62f 68f
1:36 11 13 mph 1024.6mb 62f 68f
1:30 11 13 mph 1024.7mb 62f 69f
1:24 10 11 mph 1024.7mb 62f 69f
1:18 8 9 mph 1024.7mb 62f 70f
1:12 7
mph
1024.6mb 62f 70f
1:06 6 7 mph 1024.6mb 62f 71f
1:00 6 7 mph 1024.7mb 62f 71f
12:54 6 7 mph 1024.7mb 62f 71f
12:48 6
mph
1024.7mb 62f 71f
12:42 5 6 mph 1024.7mb 62f 71f
12:36 3 5 mph 1024.7mb 62f 72f
12:30 2
mph
1024.8mb 62f 73f
12:24 2 6 mph 1024.8mb 62f 73f
12:18 2
mph
1024.8mb 62f 74f
12:12 1 2 mph 1024.8mb 62f 74f
12:06 2 3 mph 1024.8mb 62f 73f
12:00 3
mph
1024.8mb 62f 72f
11:54 2 3 mph 1024.8mb 62f 73f
11:48 3
mph
1024.9mb 62f 72f
11:42 3
mph
1024.9mb 62f 72f
11:36 3
mph
1024.9mb 62f 72f
11:30 3
mph
1025mb 62f 72f
11:24 3
mph
1025mb 62f 72f
11:18 3
mph
1025mb 62f 72f
11:12 3
mph
1025mb 62f 71f
11:06 1 2 mph 1025mb 62f 71f
11:00 1 2 mph 1025mb 62f 71f
10:54 2 3 mph 1025.1mb 62f 71f
10:48 3 5 mph 1025.1mb 62f 70f
10:42 3 5 mph 1025.1mb 62f 70f
10:36 3 5 mph 1025.1mb 62f 70f
10:30 3 5 mph 1025.1mb 62f 70f
10:24 3 5 mph 1025.1mb 62f 69f
10:18 5
mph
1025.1mb 62f 69f
10:12 5 6 mph 1025.1mb 62f 69f
10:06 5 6 mph 1025.1mb 62f 69f
10:00 5 6 mph 1025.2mb 62f 68f
9:54 5 6 mph 1025.2mb 61f 68f
9:48 6
mph
1025.1mb 61f 68f
9:42 6
mph
1025.2mb 61f 68f
9:36 7 8 mph 1025.1mb 61f 67f
9:30 7 8 mph 1025.1mb 61f 67f
9:24 7 8 mph 1025.2mb 61f 67f
9:18 7 8 mph 1025.1mb 61f 66f
9:12 6 8 mph 1025.2mb 61f 66f
9:06 7 8 mph 1025.2mb 61f 66f
9:00 7 9 mph 1025.2mb 61f 66f
8:54 8 9 mph 1025.1mb 61f 66f
8:48 8 9 mph 1025.1mb 61f 66f
8:42 7 8 mph 1025.2mb 61f 65f
8:36 6 7 mph 1025.1mb 61f 65f
8:30 7
mph
1025.1mb 61f 65f
8:24 6 8 mph 1025.1mb 61f 65f
8:18 7 9 mph 1025.1mb 61f 65f
8:12 8 10 mph 1025.1mb 61f 66f
8:06 9 11 mph 1025mb 61f 66f
8:00 9 11 mph 1025mb 61f 66f
7:48 8 10 mph 1024.9mb 61f 65f
7:42 7 9 mph 1024.9mb 61f 65f
7:36 9 10 mph 1024.8mb 61f 65f
7:30 9 11 mph 1024.8mb 61f 65f
7:24 9 10 mph 1024.8mb 61f 65f
7:18 7 8 mph 1024.8mb 61f 65f
7:12 6 7 mph 1024.8mb 61f 65f
7:06 2 5 mph 1024.7mb 61f 64f
7:00 2 5 mph 1024.6mb 61f 64f
6:54 5 6 mph 1024.6mb 61f 64f
6:48 5 6 mph 1024.5mb 61f 64f
6:42 3 5 mph 1024.5mb 62f 64f
6:36 3 5 mph 1024.5mb 62f 63f
6:30 3 6 mph 1024.4mb 62f 63f
6:24 3 5 mph 1024.3mb 62f 63f
6:18 5 6 mph 1024.3mb 62f 63f
6:12 2 5 mph 1024.2mb 62f 63f
6:06 3 5 mph 1024.2mb 62f 62f
6:00 3 6 mph 1024.2mb 62f 62f
5:54 3 6 mph 1024.3mb 62f 62f
5:48 5 6 mph 1024.2mb 62f 61f
5:42 3 6 mph 1024.2mb 62f 61f
5:36 3 6 mph 1024.1mb 62f 61f
5:30 5 6 mph 1024.1mb 62f 60f
5:24 5 6 mph 1024mb 62f 60f
5:18 5 6 mph 1023.9mb 62f -
5:12 5 6 mph 1023.9mb 62f -
5:06 5 6 mph 1023.9mb 62f -
5:00 5 6 mph 1023.8mb 61f 61f
4:54 3 5 mph 1023.8mb 61f 61f
4:48 5 6 mph 1023.7mb 62f 61f
4:42 5 6 mph 1023.6mb 62f 61f
4:36 5 6 mph 1023.6mb 62f 61f
4:30 3 5 mph 1023.5mb 62f 62f
4:24 3 5 mph 1023.5mb 62f 62f
4:18 3 6 mph 1023.4mb 61f 62f
4:12 3 5 mph 1023.4mb 61f 62f
4:06 5
mph
1023.4mb 61f 62f
4:00 3 6 mph 1023.4mb 62f 62f
3:54 5 6 mph 1023.3mb 62f 62f
3:48 3 5 mph 1023.2mb 62f 62f
3:42 3 6 mph 1023.2mb 61f 62f
3:36 3 5 mph 1023.2mb 62f 62f
3:30 3 5 mph 1023.1mb 62f 62f
3:24 2 3 mph 1023.1mb 62f 62f
3:18 1 2 mph 1023.1mb 62f 61f
3:12 2 3 mph 1023.1mb 62f 61f
3:06 2 3 mph 1023.1mb 62f 61f
3:00  -  mph - 62f -
2:54  -  mph - 62f -
2:48  -  mph - 62f -
2:42  -  mph - 62f -
2:36  -  mph - 62f -
2:30 3
mph
1023.1mb 62f 60f
2:24 3 5 mph 1023mb 62f 60f
2:18 3 5 mph 1023mb 62f -
2:12 3
mph
1022.9mb 62f -
2:06 2 3 mph 1022.9mb 62f -
2:00 3 5 mph 1022.8mb 62f 61f
1:54  -  2 mph 1022.8mb 62f 61f
1:48 2
mph
1022.7mb 62f 62f
1:42  -  1 mph 1022.7mb 62f 61f
1:36  -  1 mph 1022.8mb 62f 61f
1:30  -  mph 1022.7mb 62f 61f
1:24  -  1 mph 1022.7mb 62f 61f
1:18 1 2 mph 1022.7mb 62f 61f
1:12 2 5 mph 1022.8mb 62f 61f
1:06 2 3 mph 1022.7mb 62f 61f
1:00 2
mph
1022.8mb 62f 61f
12:54 2 3 mph 1022.8mb 62f 61f
12:48 3
mph
1022.9mb 62f 61f
12:42 3
mph
1022.8mb 62f 61f
12:36 3 6 mph 1022.8mb 62f 61f
12:30 6
mph
1022.8mb 62f 61f
12:24 5
mph
1022.8mb 62f 60f
12:18 2
mph
1022.7mb 62f 60f
12:12 2 3 mph 1022.7mb 62f 61f
12:06 3 5 mph 1022.7mb 62f 61f
12:00 5 6 mph 1022.7mb 62f 61f
jeu. 05/28 11:54 6 8 mph 1022.7mb 62f 60f
11:48 8 9 mph 1022.6mb 62f 60f
11:42 8 9 mph 1022.6mb 62f 60f
11:36 6 7 mph 1022.6mb 62f 61f
11:30 7
mph
1022.4mb 62f 61f
11:24 6
mph
1022.5mb 62f 61f
11:18 6 7 mph 1022.4mb 62f 61f
11:12 7
mph
1022.4mb 62f 61f
11:06 7 8 mph 1022.5mb 62f 61f
11:00 7 10 mph 1022.5mb 63f 61f
10:54 9 10 mph 1022.5mb 63f 61f
10:48 7 8 mph 1022.4mb 63f 62f
10:42 6 8 mph 1022.3mb 63f 62f
10:36 8 9 mph 1022.3mb 63f 62f
10:30 8 9 mph 1022.2mb 63f 62f
10:24 8
mph
1022.1mb 63f 62f
10:18 8 10 mph 1022.1mb 63f 62f
10:12 9 10 mph 1022.1mb 63f 62f
10:00 7 9 mph 1022mb 63f 63f
9:54 9
mph
1022mb 63f 63f
9:48 8
mph
1022mb 63f 63f
9:42 7 8 mph 1021.9mb 62f 63f
9:36 7 8 mph 1021.8mb 61f 64f
9:30 8
mph
1021.7mb 61f 63f
9:24 5 6 mph 1021.7mb 61f 64f
9:18 3 6 mph 1021.5mb 61f 65f
9:12 3 6 mph 1021.4mb 61f 65f
9:06 3 5 mph 1021.3mb 61f 65f
9:00 3 5 mph 1021.2mb 61f 63f
8:54 3 5 mph 1021.2mb 61f 63f
8:48 3 10 mph 1021.1mb 61f 63f
8:42 9 10 mph 1020.8mb 61f 62f
8:36 5 10 mph 1020.9mb 61f 61f
8:30 11 15 mph 1020.5mb 61f 61f
8:24 14 16 mph 1020.3mb 61f 61f
8:18 14 15 mph 1020.2mb 61f 61f
8:12 13 14 mph 1020.3mb 61f 62f
8:06 11
mph
1020.4mb 61f 61f
8:00 10 13 mph 1020.6mb 61f 62f
7:54 11 14 mph 1020.4mb 61f 62f
7:48 13 14 mph 1020.4mb 61f 62f
7:42 13 15 mph 1020.3mb 61f 62f
7:36 14 15 mph 1020.2mb 62f 62f
7:30 14 15 mph 1020.4mb 62f 62f
7:24 14 15 mph 1020.3mb 62f 62f
7:18 13 14 mph 1020.5mb 62f 62f
7:12 14 15 mph 1020.5mb 62f 63f
7:06 14 15 mph 1020.5mb 62f 62f
7:00 14 16 mph 1020.5mb 62f 62f
6:54 15 16 mph 1020.3mb 62f 62f
6:48 14 15 mph 1020.3mb 62f 62f
6:42 13 15 mph 1020.4mb 62f 63f
6:36 13 15 mph 1020.3mb 62f 63f
6:30 13 15 mph 1020.2mb 62f 63f
6:24 11 16 mph 1020.2mb 62f 63f
6:18 11 14 mph 1020mb 62f 63f
6:12 10 13 mph 1020mb 62f 63f
6:06 11 14 mph 1020.1mb 63f 66f
6:00 13 16 mph 1019.7mb 63f 62f
5:54 14 16 mph 1019.6mb 63f 62f
5:48 13 16 mph 1019.7mb 63f 63f
5:42 14 17 mph 1019.5mb 63f 63f
5:36 16 17 mph 1019.3mb 63f 62f
5:30 10 15 mph 1019.3mb 63f 65f
5:24 11 16 mph 1019.3mb 63f 64f
5:18 13 23 mph 1019.3mb 63f 65f
5:12 16 24 mph 1019.1mb 63f 68f
5:06 16 24 mph 1019mb 63f 69f
5:00 21 25 mph 1019.1mb 63f 68f
4:54 21 24 mph 1019.3mb 63f 69f
4:48 14 24 mph 1019.5mb 63f 68f
4:42 13 18 mph 1019.4mb 63f 68f
4:36 16 22 mph 1019.4mb 63f 67f
4:30 17 23 mph 1019.3mb 63f 68f
4:24 14 16 mph 1019.4mb 63f 67f
4:18 20 23 mph 1019.5mb 63f 67f
4:12 16 18 mph 1019.5mb 62f 67f
4:06 17 20 mph 1019.5mb 62f 67f
4:00 16 20 mph 1019.6mb 62f 67f
3:54 15 20 mph 1019.6mb 62f 64f
3:48 17 21 mph 1019.6mb 62f 63f
3:42 15 18 mph 1019.7mb 62f 64f
3:36 17 22 mph 1019.7mb 62f 63f
3:30 18 22 mph 1019.6mb 62f 63f
3:24 20 23 mph 1019.8mb 62f 63f
3:18 20 22 mph 1019.9mb 62f 63f
3:12 16 21 mph 1019.9mb 62f 64f
3:06 17 21 mph 1019.9mb 62f 64f
3:00 18 23 mph 1020mb 62f 64f
2:54 20 23 mph 1019.9mb 62f 64f
2:48 21 25 mph 1019.9mb 62f 64f
2:42 22 28 mph 1019.9mb 62f 65f
2:36 21 25 mph 1020mb 62f 63f
2:30 22 24 mph 1020mb 62f 62f
2:24 22 25 mph 1020.1mb 62f 62f
2:18 22 24 mph 1020.2mb 62f 62f
2:12 21 23 mph 1020.1mb 62f 63f
2:06 20 22 mph 1020.1mb 62f 63f
2:00 20 23 mph 1020.1mb 62f 64f
1:54 20 23 mph 1020.1mb 62f 64f
1:48 20 21 mph 1020.1mb 62f 64f
1:42 18 22 mph 1020.2mb 62f 64f
1:36 18 22 mph 1020.3mb 62f 63f
1:30 20 22 mph 1020.4mb 62f 63f
1:24 21 23 mph 1020.5mb 62f 63f
1:18 18 22 mph 1020.5mb 61f 63f
1:12 15 17 mph 1020.6mb 61f 64f
1:06 13 17 mph 1020.8mb 61f 68f
1:00 17 21 mph 1020.7mb 61f 69f
12:54 20 23 mph 1020.9mb 61f 69f
12:48 15 20 mph 1021mb 61f 69f
12:42 16 20 mph 1021.1mb 61f 68f
12:36 10 15 mph 1021.1mb 61f 68f
12:30 17 20 mph 1021.1mb 61f 68f
12:24 15 21 mph 1021.2mb 61f 67f
12:18  -  mph 1021.3mb 61f 67f
12:12  -  mph 1021.4mb 61f 67f
12:06  -  mph 1021.4mb 61f 67f
12:00 15 16 mph 1021.4mb 61f 66f
11:54 14 15 mph 1021.4mb 61f 67f
11:48 14 21 mph 1021.5mb 61f 67f
11:42 16 17 mph 1021.5mb 61f 67f
11:36 14 16 mph 1021.5mb 61f 66f
11:30 14 16 mph 1021.4mb 61f 66f
11:24 16 20 mph 1021.3mb 61f 67f
11:18 14 18 mph 1021.3mb 61f 66f
11:12 15 22 mph 1021.4mb 61f 66f
11:06 16 20 mph 1021.4mb 61f 66f
11:00 17 22 mph 1021.4mb 61f 66f
10:54 21 22 mph 1021.3mb 61f 66f
10:48 20 22 mph 1021.3mb 61f 66f
10:42 18 22 mph 1021.2mb 61f 66f
10:36 21 22 mph 1021.2mb 61f 66f
10:30 20 22 mph 1021.4mb 61f 66f
10:24 18 20 mph 1021.4mb 61f 66f
10:18 18 22 mph 1021.5mb 61f 66f
10:12 17 21 mph 1021.5mb 61f 66f
10:06 18 21 mph 1021.4mb 61f 66f
10:00 20 22 mph 1021.5mb 61f 66f
9:54 20 22 mph 1021.5mb 61f 65f
9:48 17 22 mph 1021.6mb 61f 65f
9:42 22 25 mph 1021.5mb 61f 66f
9:36 17 20 mph 1021.6mb 61f 65f
9:30 16 18 mph 1021.5mb 61f 66f
9:24 17 18 mph 1021.7mb 61f 66f
9:18 16 17 mph 1021.8mb 61f 65f
9:12 11 15 mph 1021.7mb 61f 65f
9:06 14 16 mph 1021.7mb 61f 65f
9:00 14 16 mph 1021.8mb 61f 65f
8:54 14 16 mph 1021.8mb 61f 65f
8:48 13 17 mph 1021.7mb 61f 65f
8:42 15 17 mph 1021.7mb 61f 65f
8:36 13 17 mph 1021.6mb 60f 64f
8:30 17 21 mph 1021.8mb 60f 64f
8:24 15 18 mph 1021.8mb 60f 64f
8:18 17 20 mph 1021.8mb 60f 64f
8:12 18 22 mph 1021.8mb 60f 64f
8:06 15 22 mph 1021.8mb 60f 64f
8:00 15 17 mph 1021.7mb 60f 64f
7:54 14 16 mph 1021.7mb 60f 64f
7:48 14 16 mph 1021.6mb 60f 64f
7:42 14 17 mph 1021.5mb 60f 64f
7:36 13 17 mph 1021.5mb 60f 64f
7:30 15 17 mph 1021.5mb 60f 63f
7:24 14 17 mph 1021.6mb 60f 63f
7:18 11 16 mph 1021.7mb 60f 63f
7:12 13 16 mph 1021.7mb 60f 63f
7:06 14 17 mph 1021.6mb 60f 63f
7:00 11 15 mph 1021.6mb 60f 61f
6:54 11 14 mph 1021.5mb 60f 61f
6:48 13 14 mph 1021.3mb 60f 62f
6:42 11 13 mph 1021.2mb 60f 62f
6:36 10 13 mph 1021.2mb 61f 62f
6:30 10 14 mph 1021.3mb - 62f
6:24 11 14 mph 1021.3mb - 62f
6:18 11 13 mph 1021.2mb 61f 62f
6:12 10 13 mph 1021.2mb 61f 62f
6:06 9 11 mph 1021.2mb 61f 61f
6:00 9 10 mph 1021.1mb 61f 61f
5:54 9 10 mph 1021.1mb 61f 61f
5:48 10 11 mph 1021mb 61f 61f
5:42 11 13 mph 1020.9mb 61f 61f
5:36 11 13 mph 1021mb 61f 61f
5:30 9 10 mph 1020.9mb 61f 61f
5:24 10
mph
1020.9mb 61f 61f
5:18 8 11 mph 1020.7mb 61f 62f
5:12 9 10 mph 1020.7mb 61f 62f
5:06 8 13 mph 1020.7mb 61f 62f
5:00 9 11 mph 1020.7mb 61f 62f
4:54 9 11 mph 1020.7mb 61f 62f
4:48 9 13 mph 1020.8mb 61f 61f
4:42 9 11 mph 1020.8mb 62f 61f
4:36 10 14 mph 1020.8mb 62f 61f
4:30 9 14 mph 1020.8mb 62f 61f
4:24 9 13 mph 1020.7mb 62f 61f
4:18 10 13 mph 1020.7mb 62f 61f
4:12 10 13 mph 1020.7mb 62f 61f
4:06 13 15 mph 1020.6mb 62f 62f
4:00 14 16 mph 1020.6mb 62f 62f
3:54 15 16 mph 1020.5mb 62f 62f
3:48 15 17 mph 1020.4mb 62f 62f
3:42 14 18 mph 1020.4mb 62f 62f
3:36 13 15 mph 1020.4mb 62f 61f
3:30 13 17 mph 1020.4mb 62f 61f
3:24 14 16 mph 1020.4mb 62f 61f
3:18 13 17 mph - 62f 61f
3:12 16 21 mph - 61f 62f
3:06 15 18 mph - 61f 61f
3:00 15 18 mph 1020.5mb 61f 62f
2:54 15 20 mph 1020.5mb 61f 62f
2:48 15 18 mph 1020.5mb 61f 62f
2:42 14 18 mph 1020.5mb 61f 62f
2:36 14 18 mph 1020.5mb 61f 62f
2:30 16 18 mph 1020.5mb 61f 62f
2:24 16 18 mph 1020.4mb 61f 62f
2:18 16 20 mph 1020.5mb 61f 62f
2:12 16 22 mph 1020.4mb 61f 62f
2:06 17 20 mph 1020.3mb 61f 62f
2:00 16 18 mph 1020.3mb 61f 62f
1:54 18 21 mph 1020.3mb 61f 62f
1:48 17 21 mph 1020.3mb 61f 62f
1:42 18 22 mph 1020.3mb 61f 63f
1:36 14 23 mph 1020.4mb 61f 63f
1:30 17 20 mph 1020.3mb 61f 63f
1:24 16 21 mph 1020.4mb 61f 63f
1:18 16 20 mph 1020.4mb 61f 63f
1:12 16 21 mph 1020.5mb 61f 63f
1:06 15 17 mph 1020.5mb 61f 63f
1:00 16 17 mph 1020.5mb 61f 63f
12:54 14 18 mph 1020.6mb 61f 62f
12:48 14 20 mph 1020.7mb 61f 62f
12:42 16 20 mph 1020.7mb 61f 62f
12:36 17 20 mph 1020.7mb 61f 62f
12:30 16 21 mph 1020.9mb 61f 62f
12:24 17 18 mph 1021mb 61f 62f
12:18 15 20 mph 1021.2mb 61f 62f
12:12 14 16 mph 1021.2mb 61f 61f
12:06 15 21 mph 1021.3mb 61f 61f
12:00 17 21 mph 1021.3mb 61f 63f
mer. 05/27 11:54 16 18 mph 1021.4mb 61f 63f
11:48 15 18 mph 1021.3mb 61f 63f
11:42 16 20 mph 1021.2mb 61f 64f
11:36 15 20 mph 1021.3mb 61f 64f
11:30 15 17 mph 1021.3mb 61f 64f
11:24 15 17 mph 1021.2mb 61f 64f
11:18 14 17 mph 1021.2mb 61f 64f
11:12 15 18 mph 1021.2mb 61f 65f
11:06 14 22 mph 1021.3mb 61f 65f
11:00 15 20 mph 1021.1mb 61f 65f
10:54 16 18 mph 1021.1mb 62f 65f
10:48 13 15 mph 1021.4mb 62f 65f
10:42 14 15 mph 1021.2mb 62f 65f
10:36 10 15 mph 1021.5mb 62f 65f
10:30 15 16 mph 1021.3mb 62f 65f
10:24 13 17 mph 1021.6mb 62f 65f
10:18 15 17 mph 1021.5mb 62f 65f
10:12 14 16 mph 1021.5mb 62f 65f
10:06 14 17 mph 1021.6mb 62f 65f
10:00 15 18 mph 1021.5mb 62f 65f
9:54 15 17 mph 1021.5mb 62f 65f
9:48 10 16 mph 1021.6mb 62f 65f
9:42 11 15 mph 1021.7mb 62f 65f
9:36 11 15 mph 1021.8mb 62f 65f
9:30 13 17 mph 1021.6mb 62f 65f
9:24 15 18 mph 1021.7mb 62f 65f
9:18 13 16 mph 1021.5mb 62f 65f
9:12 14 18 mph 1021.7mb 62f 65f
9:06 15 18 mph 1021.5mb 62f 66f
9:00 14 16 mph 1021.5mb 62f 66f
8:54 14 17 mph 1021.5mb 62f 66f
8:48 15 17 mph 1021.4mb 62f 66f
8:42 14 16 mph 1021.2mb 62f 66f
8:36 14 18 mph 1021.3mb 62f 66f
8:30 13 17 mph 1021.2mb 62f 66f
8:24 16 21 mph 1021.1mb 62f 67f
8:18 17 21 mph 1021.1mb 62f 67f
8:12 18 26 mph 1021.1mb 62f 67f
8:06 20 23 mph 1021.2mb 62f 67f
8:00 21 26 mph 1021mb 62f 67f
7:54 21 26 mph 1021mb 61f 67f
7:48 17 23 mph 1021mb 61f 67f
7:42 21 25 mph 1021mb 61f 68f
7:36 18 29 mph 1020.9mb 61f 67f
7:30 21 28 mph 1020.7mb 61f 67f
7:24 20 25 mph 1020.8mb 61f 67f
7:18 21 29 mph 1020.9mb 61f 67f
7:12 23 28 mph 1020.9mb 61f 67f
7:06 21 30 mph 1020.8mb 61f 67f
7:00 25 33 mph 1020.6mb 61f 68f
6:54 22 30 mph 1020.5mb 61f 67f
6:48 22 32 mph 1020.4mb 61f 67f
6:00 24 31 mph 1020mb 62f 68f
5:54 24 32 mph 1020.1mb 62f 68f
5:48 28 39 mph 1020.1mb 62f 68f
5:30 25 32 mph 1020.3mb 62f 67f
5:24 24 32 mph 1020.4mb 62f 67f
5:18 26 30 mph 1020.3mb 62f 67f
5:12 25 38 mph 1020.4mb 62f 67f
5:06 21 31 mph 1020.5mb 62f 67f
5:00 23 29 mph 1020.5mb 62f 67f
4:54 23 34 mph 1020.5mb 62f 67f
4:48 29 34 mph 1020.4mb 62f 67f
4:42 22 26 mph 1020.5mb 62f 67f
4:36 22 28 mph 1020.4mb 63f 67f
4:30 23 29 mph 1020.4mb 63f 67f
4:24 18 29 mph 1020.6mb 63f 67f
4:18 22 31 mph 1020.5mb 63f 67f
4:12 25 31 mph 1020.4mb 63f 67f
4:06 22 28 mph 1020.5mb 63f 67f
4:00 21 25 mph 1020.6mb 63f 67f
3:54 20 22 mph 1020.6mb 63f 67f
3:48 22 26 mph 1020.6mb 63f 67f
3:42 20 26 mph 1020.8mb 63f 67f
3:36 20 26 mph 1020.8mb 63f 67f
3:30 20 24 mph 1020.9mb 62f 67f
3:24 21 26 mph 1020.8mb 62f 67f
3:18 20 28 mph 1020.9mb 62f 67f
3:12 22 28 mph 1021mb 62f 67f
3:06 24 29 mph 1021mb 62f 67f
3:00 21 24 mph 1021mb 62f 67f
2:54 20 25 mph 1021.1mb 62f 67f
2:48 16 22 mph 1021.1mb 62f 67f
2:42 18 28 mph 1021mb 62f 67f
2:36 15 22 mph 1021mb 62f 67f
2:30 17 23 mph 1021mb 62f 66f
2:24 18 25 mph 1021.1mb 62f 66f
2:18 18 25 mph 1021.2mb 62f 67f
2:12 17 22 mph 1021.3mb 62f 67f
2:06 21 30 mph 1021.3mb 62f 67f
2:00 16 21 mph 1021.4mb 62f 67f
1:54 17 21 mph 1021.5mb 62f 67f
1:48 18 22 mph 1021.5mb 62f 67f
1:42 18 25 mph 1021.5mb 62f 68f
1:36 24 28 mph 1021.4mb 62f 68f
1:30 18 22 mph 1021.5mb 62f 68f
1:24 15 20 mph 1021.6mb 62f 67f
1:18 17 20 mph 1021.7mb 62f 67f
1:12 14 20 mph 1021.7mb 62f 67f
1:06 16 20 mph 1021.7mb 61f 67f
1:00 18 23 mph 1021.8mb 61f 67f
12:54 21 23 mph 1021.9mb 61f 67f
12:48 20 22 mph 1021.9mb 61f 67f
12:42 16 18 mph 1022.1mb 61f 66f
12:36 16 18 mph 1022.3mb 61f 66f
12:30 16 20 mph 1022.3mb 61f 65f
12:24 15 20 mph 1022.3mb 61f 66f
12:18 14 16 mph 1022.3mb 61f 66f
12:12 16 20 mph 1022.2mb 61f 66f
12:06 16 20 mph 1022.2mb 61f 66f
12:00 16 21 mph 1022.2mb 61f 66f
11:54 17 20 mph 1022.3mb 61f 65f
11:48 17 20 mph 1022.3mb 61f 65f
11:42 17 21 mph 1022.3mb 61f 65f
11:36 20 23 mph 1022.3mb 61f 62f
11:30 21 24 mph 1022.3mb 61f 62f
11:24 23 25 mph 1022.3mb 61f 62f
11:18 22 25 mph 1022.2mb 61f 62f
11:12 23 25 mph 1022.1mb 61f 62f
11:06 22 25 mph 1022.1mb 61f 62f
11:00 22 24 mph 1022.1mb 60f 63f
10:54 18 23 mph 1022.2mb 60f 63f
10:48 16 20 mph 1022.2mb 60f 63f
10:42 15 17 mph 1022.3mb 60f 63f
10:36 14 16 mph 1022.3mb 60f 63f
10:30 14 17 mph 1022.3mb 60f 63f
10:24 13 15 mph 1022.3mb 60f 64f
10:18 10 14 mph 1022.2mb 60f 64f
10:12 10 11 mph 1022mb 60f 65f
10:06 10 15 mph 1022.2mb 60f 65f
10:00 13 14 mph 1022.1mb 60f 65f
9:54 13 15 mph 1022.2mb 60f 65f
9:48 13 14 mph 1022.3mb 60f 65f
9:42 13 17 mph 1022.2mb 60f 65f
9:36 13 18 mph 1022.2mb 60f 65f
9:30 17 20 mph 1022.2mb 60f 65f
9:24 16 21 mph 1022.2mb 60f 64f
9:18 18 22 mph 1022.2mb 60f 64f
9:12 15 21 mph 1022.3mb 60f 64f
9:06 17 21 mph 1022.4mb 60f 65f
9:00 15 18 mph 1022.5mb 60f 65f
8:54 11 17 mph 1022.5mb 60f 64f
8:48 16 18 mph 1022.4mb 60f 64f
8:42 14 16 mph 1022.4mb 60f 64f
8:36 16 17 mph 1022.4mb 60f 63f
8:30 14 17 mph 1022.3mb 60f 63f
8:24 14 15 mph 1022.3mb 60f 63f
8:18 14 16 mph 1022.4mb 60f 63f
8:12 14 16 mph 1022.4mb 60f 63f
8:06 14 17 mph 1022.4mb 60f 63f
8:00 13 17 mph 1022.4mb 59f 63f
7:54 14 17 mph 1022.5mb 59f 63f
7:48 13 15 mph 1022.5mb 59f 61f
7:42 14 16 mph 1022.4mb 59f 60f
7:36 14 17 mph 1022.3mb 59f 60f
7:30 14 16 mph 1022.3mb 59f 60f
7:24 14 16 mph 1022.3mb 59f 60f
7:18 13 15 mph 1022.4mb 59f 59f
7:12 14 16 mph 1022.3mb 59f 59f
7:06 15 17 mph 1022.3mb 60f 59f
7:00 15 16 mph 1022.3mb 60f 59f
6:54 15 16 mph 1022.3mb 60f 59f
6:48 15 17 mph 1022.3mb 60f 59f
6:42 15 16 mph 1022.3mb 60f 59f
6:36 11 14 mph 1022.3mb 60f 59f
6:30 11 14 mph 1022.3mb 60f 59f
6:24 13 14 mph 1022.3mb 60f 59f
6:18 13 14 mph 1022.2mb 60f 59f
6:12 13 14 mph 1022.2mb 60f 59f
6:06 11 13 mph 1022.2mb 60f 60f
6:00 11 14 mph 1022.2mb 60f 60f
5:54 11 13 mph 1022.2mb 60f 60f
5:48 11 14 mph - - -
5:42 14
mph
- - -
5:36 14 16 mph - - -
5:30 15 17 mph 1022.1mb 60f 59f
5:24 16 17 mph 1022.1mb 60f 59f
5:18  -  mph 1022mb 60f 58f
5:12  -  mph 1022mb 60f 58f
5:06  -  mph 1021.9mb 60f 58f
5:00 15 17 mph 1021.9mb 60f 58f
4:54 15 17 mph 1021.8mb 60f 58f
4:48 16 18 mph 1021.8mb 60f 58f
4:42 13 15 mph 1021.8mb 60f 59f
4:36 10 11 mph 1021.8mb 60f 60f
4:30 11 13 mph 1021.7mb 60f 61f
4:24 11 13 mph 1021.7mb 61f 61f
4:18 11 14 mph 1021.6mb 61f 59f
4:12 13 14 mph 1021.6mb 61f 59f
4:06 14
mph
1021.5mb 61f 59f
4:00 14 15 mph 1021.5mb 61f 58f
3:54 14 16 mph 1021.5mb 61f 58f
3:48 15 16 mph 1021.5mb 61f 58f
3:42 15 17 mph 1021.5mb 61f 58f
3:36 16 18 mph 1021.5mb 61f 58f
3:30  -  mph 1021.5mb - -
3:24  -  mph - 61f -
3:18 15 17 mph 1021.5mb 61f -
3:12 16 17 mph 1021.4mb 61f -
3:06 15 17 mph 1021.5mb 61f -
3:00 15 17 mph 1021.6mb 61f -
2:54 14 16 mph 1021.6mb 61f -
2:48 15 17 mph 1021.6mb - -
2:42 14 16 mph 1021.7mb - -
2:36 14 15 mph 1021.7mb - -
2:30 13 16 mph 1021.7mb 61f 60f
2:24 13 15 mph 1021.7mb 61f 62f
2:18 14 16 mph 1021.7mb 61f 63f
2:12 13 15 mph 1021.8mb 61f 63f
2:06 11 15 mph 1021.9mb 61f 62f
2:00  -  mph - - 62f
1:54  -  mph - - 63f
1:48 11 14 mph 1022mb 61f 62f
1:42 13 15 mph 1022mb 61f 63f
1:36 11 15 mph 1022mb 61f 63f
1:30 11 14 mph 1022mb 60f 63f
1:24 10 15 mph 1022mb 60f 63f
1:18 13 14 mph 1022mb 60f 63f
1:12 10 14 mph 1022.1mb 60f 63f
1:06 13 16 mph 1022.1mb 60f 63f
1:00 11 15 mph 1022.1mb 60f 63f
12:54 13 16 mph 1022.1mb 60f 63f
12:48 11 15 mph 1022.1mb 60f 63f
12:42 14 16 mph 1022mb 61f 63f
12:36 15 18 mph 1021.9mb 61f 63f
12:30 16 20 mph 1021.9mb 61f 64f
12:24 13 17 mph 1022mb 61f 63f
12:18 11 16 mph 1022.1mb 61f 63f
12:12 13 16 mph 1022.1mb 61f 63f
12:06 11 17 mph 1022.1mb 61f 63f
12:00 14 18 mph 1022.1mb 61f 64f
mar. 05/26 11:54 13 17 mph 1022.2mb 61f 63f
11:48 11 16 mph 1022.2mb 61f 63f
11:42 15 17 mph 1022.2mb 61f 63f
11:36 14 17 mph 1022.1mb 61f 63f
11:30 11 15 mph 1022.1mb 61f 63f
11:24 13 16 mph 1022mb 61f 63f
11:18 13 18 mph 1022mb 61f 63f
11:12 14 17 mph 1021.9mb 61f 63f
11:06 14 18 mph 1021.9mb 61f 63f
11:00 14 20 mph 1021.8mb 61f 64f
10:54 16 18 mph 1021.7mb 61f 64f
10:48 14 18 mph 1021.7mb 61f 64f
10:42 14 16 mph 1021.7mb 61f 64f
10:36 14 18 mph 1021.6mb 61f 64f
10:30 14 17 mph 1021.7mb 61f 64f
10:24 14 16 mph 1021.6mb 61f 64f
10:18 9 13 mph 1021.6mb 61f 63f
10:12 9 13 mph 1021.7mb 61f 63f
10:06 11 15 mph 1021.7mb 61f 63f
10:00 11 18 mph 1021.6mb 61f 63f
9:54 14 17 mph 1021.6mb 61f 64f
9:48 14 18 mph 1021.7mb 62f 64f
9:42 14 17 mph 1021.7mb 62f 64f
9:36 13 16 mph 1021.6mb 62f 64f
9:30 11 14 mph 1021.6mb 62f 64f
9:24 10 14 mph 1021.6mb 62f 65f
9:18 8 11 mph 1021.6mb 62f 64f
9:12 7 10 mph 1021.6mb 62f 64f
9:06 8 10 mph 1021.6mb 62f 64f
9:00 8 10 mph 1021.5mb 62f 64f
8:54 8 11 mph 1021.4mb 62f 65f
8:48 9 11 mph 1021.3mb 62f 65f
8:42 10 13 mph 1021.2mb 62f 65f
8:36 11 16 mph 1021mb 62f 65f
8:30 14 18 mph 1021mb 62f 66f
8:24 15 18 mph 1021mb 62f 66f
8:18 16 21 mph 1021mb 62f 66f
8:12 18 23 mph 1021mb 62f 66f
8:06 18 24 mph 1020.9mb 62f 67f
8:00 18 21 mph 1020.9mb 62f 67f
7:54 18 22 mph 1020.9mb 62f 67f
7:48 15 18 mph 1020.9mb 62f 67f
7:42 16 21 mph 1020.9mb 62f 67f
7:36 17 21 mph 1020.9mb 62f 67f
7:30 18 21 mph 1020.8mb 62f 68f
7:24 16 20 mph 1020.8mb 62f 68f
7:18 18 24 mph 1020.8mb 62f 69f
7:12 18 22 mph 1020.9mb 62f 69f
7:06 20 25 mph 1020.9mb 62f 69f
7:00 17 24 mph 1020.9mb 62f 69f
6:54 16 25 mph 1021mb 62f 69f
6:48 18 28 mph 1021mb 62f 69f
6:42 22 29 mph 1020.9mb 61f 69f
6:36 18 24 mph 1020.9mb 61f 70f
6:30 23 25 mph 1020.8mb 61f 70f
6:24 21 25 mph 1020.8mb 60f 70f
6:18 21 25 mph 1020.8mb 60f 71f
6:12 22 25 mph 1020.7mb 60f 71f
6:06 20 24 mph 1020.8mb 60f 71f
6:00 18 24 mph 1020.8mb 60f 70f
5:54 20 22 mph 1020.7mb 60f 70f
5:48 16 20 mph 1020.7mb 60f 70f
5:42 17 22 mph 1020.7mb 60f 71f
5:36 20 25 mph 1020.7mb 60f 71f
5:30 21 25 mph 1020.7mb 60f 71f
5:24 22 26 mph 1020.7mb 60f 71f
5:18 18 24 mph 1020.8mb 60f 71f
5:12 14 22 mph 1020.9mb 60f 66f
5:06 15 23 mph 1020.8mb 60f 69f
5:00 16 24 mph 1020.7mb 60f 71f
4:54 21 24 mph 1020.7mb 60f 71f
4:48 18 23 mph 1020.7mb 60f 71f
4:42 18 21 mph 1020.7mb 60f 71f
4:36 22 26 mph 1020.6mb 60f 71f
4:30 20 23 mph 1020.7mb 61f 72f
4:24 14 17 mph 1020.8mb 61f 66f
4:18 14 25 mph 1020.8mb 61f 65f
4:12 20 25 mph 1020.6mb 61f 73f
4:06 17 24 mph 1020.6mb 61f 72f
4:00 22 29 mph 1020.6mb 61f 72f
3:54 17 22 mph 1020.6mb 61f 72f
3:48 18 25 mph 1020.7mb 61f 71f
3:42 23 28 mph 1020.6mb 61f 73f
3:36 24 29 mph 1020.7mb 61f 72f
3:30 25 28 mph 1020.6mb 61f 72f
3:24 22 25 mph 1020.7mb 61f 72f
3:18 22 28 mph 1020.9mb 61f 72f
3:12 21 29 mph 1021mb 61f 72f
3:06 23 28 mph 1021mb 61f 72f
3:00 22 29 mph 1020.9mb 61f 73f
2:54 23 26 mph 1020.9mb 60f 73f
2:48 20 23 mph 1021mb 60f 73f
2:42 18 24 mph 1021.1mb 60f 73f
2:36 15 18 mph 1021.3mb 60f 67f
2:30 16 18 mph 1021.4mb 60f 64f
2:24 15 18 mph 1021.5mb 60f 64f
2:18 14 17 mph 1021.5mb 60f 63f
2:12 14 18 mph 1021.4mb 60f 63f
2:06 17 20 mph 1021.4mb 60f 63f
2:00 16 18 mph 1021.5mb 60f 63f
1:54 17 20 mph 1021.5mb 60f 62f
1:48 15 20 mph 1021.6mb 60f 62f
1:30 15 18 mph 1021.9mb 60f 62f
1:24 17 18 mph 1021.9mb 60f 63f
1:18 16 18 mph 1022mb 60f 63f
1:12 16 18 mph 1022mb 60f 63f
1:06 17 18 mph 1022.2mb 60f 63f
1:00 16 17 mph 1022.1mb 60f 63f
12:54 16 17 mph 1022.2mb 60f 63f
12:48 16 18 mph 1022.3mb 60f 63f
12:42 16 17 mph 1022.2mb 60f 63f
12:36 14 15 mph 1022.3mb 60f 63f
12:30 14 16 mph 1022.3mb 60f 65f
12:24 15 16 mph 1022.2mb 60f 64f
12:18 15 16 mph 1022.2mb 60f 64f
12:12 14 17 mph 1022.1mb 60f 64f
12:06 14 17 mph 1022.1mb 60f 64f
12:00 16 17 mph 1022.1mb 60f 64f
11:54 16 17 mph 1022.1mb 60f 65f
11:48 15 18 mph 1022.2mb 60f 64f
11:42 16 18 mph 1022.2mb 60f 64f
11:36 16 18 mph 1022.1mb 60f 64f
11:30 14 16 mph 1022.2mb 60f 67f
11:24 13 15 mph 1022.2mb 60f 67f
11:18 10 13 mph 1022.3mb 60f 67f
11:12 11 14 mph 1022.4mb 60f 69f
11:06 13 16 mph 1022.4mb 60f 70f
11:00 15 18 mph 1022.5mb 60f 69f
10:54 14 17 mph 1022.4mb 60f 69f
10:48 9 21 mph 1022.2mb 59f 69f
10:42 13 16 mph 1022mb 59f 69f
10:36 13 16 mph 1022mb 59f 68f
10:30 15 17 mph 1021.9mb 59f 68f
10:24 14 16 mph 1021.9mb 59f 67f
10:18 14 15 mph 1021.9mb 59f 66f
10:12 13 18 mph 1021.9mb 59f 65f
10:06 16 18 mph 1022mb 59f 67f
10:00 15 16 mph 1022.1mb 59f 67f
9:54 14 16 mph 1022.2mb 59f 65f
9:48 11 14 mph 1022.3mb 59f 66f
9:42 14 15 mph 1022.3mb 59f 65f
9:36 13 16 mph 1022.3mb 59f 65f
9:30 16 20 mph 1022.2mb 59f 67f
9:24 15 17 mph 1022.3mb 59f 67f
9:18 14 18 mph 1022.3mb 59f 67f
9:12 16 18 mph 1022.4mb 59f 67f
9:06 16 20 mph 1022.4mb 59f 66f
9:00 16 21 mph 1022.4mb 58f 65f
8:54 14 18 mph 1022.4mb 58f 65f
8:48 10 18 mph 1022.5mb 58f 65f
8:42 13 17 mph 1022.6mb 58f 65f
8:36 16 21 mph 1022.5mb 58f 65f
8:30 14 20 mph 1022.4mb 58f 65f
8:24 16 18 mph 1022.3mb 58f 65f
8:18 11 18 mph 1022.4mb 58f 64f
8:12 15 17 mph 1022.3mb 58f 64f
8:06 13 16 mph 1022.4mb 58f 63f
8:00 16 20 mph 1022.4mb 58f 63f
7:54 14 17 mph 1022.5mb 58f 63f
7:48 14 16 mph 1022.6mb 58f 63f
7:42 13 16 mph 1022.7mb 58f 62f
7:36 14 17 mph 1022.6mb 58f 62f
7:30 13 15 mph 1022.6mb 58f 62f
7:24 13 17 mph 1022.6mb 58f 62f
7:18 13 16 mph 1022.6mb 58f 61f
7:12 13 16 mph 1022.7mb 58f 61f
7:06 11 16 mph 1022.6mb 58f 61f
7:00 13 15 mph 1022.5mb 58f 61f
6:54 10 17 mph 1022.5mb 58f 61f
6:48 13 17 mph 1022.4mb 58f 61f
6:42 11 16 mph 1022.4mb 58f 61f
6:36 11 15 mph 1022.4mb 58f 61f
6:30 13 16 mph 1022.3mb 58f 61f
6:24 14 16 mph 1022.2mb 58f 61f
6:18 14 17 mph 1022.2mb 58f 61f
6:12 13 16 mph 1022.2mb 58f 61f
6:06 13 16 mph 1022.2mb 58f 61f
5:54 11 14 mph 1022.2mb 58f 61f
5:48 11 17 mph 1022.1mb 58f 61f
5:42 11 16 mph 1022mb 58f 60f
5:36 13 15 mph 1022mb 58f 61f
5:30 14 15 mph 1022mb 58f 61f
5:24 14 16 mph 1021.9mb 58f 61f
5:18 14 17 mph 1021.9mb 58f 61f
5:12 13 17 mph 1022mb 58f 60f
5:06 15 17 mph 1022.1mb 58f 61f
5:00 14 17 mph 1022mb 58f 61f
4:54 15 20 mph 1021.9mb 58f 61f
4:48 16 18 mph 1021.8mb 58f 61f
4:42 16 20 mph 1021.8mb 58f 61f
4:36 16 21 mph 1021.8mb 58f 61f
4:30 14 16 mph 1021.8mb 58f 61f
4:24 16 18 mph 1021.8mb 58f 61f
4:18 15 17 mph 1021.8mb 59f 61f
4:12 15 17 mph 1021.9mb 59f 61f
4:06 14 17 mph 1021.9mb 59f 61f
4:00 13 17 mph 1021.9mb 59f 61f
3:54 17 23 mph 1021.8mb 59f 61f
3:48 18 21 mph 1021.7mb 59f 61f
3:42 15 20 mph 1021.7mb 59f 61f
3:36 16 24 mph 1021.8mb 59f 61f
3:30 20 23 mph 1021.7mb 59f 61f
3:24 17 21 mph 1021.8mb 59f 61f
3:18 18 21 mph 1021.8mb 59f 62f
3:12 18 22 mph 1021.8mb 59f 62f
3:06 16 22 mph 1021.8mb 59f 62f
3:00 15 20 mph 1021.8mb 59f 62f
2:54 16 21 mph 1021.8mb 59f 62f
2:48 17 22 mph - 59f 62f
2:42 16 20 mph - 59f 62f
2:36 16 21 mph - 59f 63f
2:30 16 20 mph 1021.6mb 59f 63f
2:24 15 21 mph 1021.6mb 59f 63f
2:18 16 21 mph 1021.6mb 59f 63f
2:12 17 21 mph 1021.7mb 59f 63f
2:06 16 22 mph 1021.6mb 59f 63f
2:00 17 21 mph 1021.7mb 59f 63f
1:54 16 20 mph 1021.8mb 59f 62f
1:48 15 18 mph 1021.9mb 59f 62f